DNKN/KAN METAR and TAF weather

Enter ICAO airport designator
Station Type Date Time Source
DNKN METAR 2019/10/18 06:00 UTC NOAA

DNKN 180600Z 22005KT CAVOK 23/21 Q1015 NOSIG


Station Type Date Time Source
DNKN Decoded METAR 2019/10/18 06:00 UTC NOAA

Kano, Nigeria (DNKN) 12-03N 008-32E 481M
Oct 18, 2019 - 02:00 AM EDT / 2019.10.18 0600 UTC
Wind: from the SW (220 degrees) at 6 MPH (5 KT):0
Visibility: greater than 7 mile(s):0
Temperature: 73 F (23 C)
Dew Point: 69 F (21 C)
Relative Humidity: 88%
Pressure (altimeter): 29.97 in. Hg (1015 hPa)
ob: DNKN 180600Z 22005KT CAVOK 23/21 Q1015 NOSIG
cycle: 6

Station Type Date Time Source
DNKN TAF 2019/10/18 06:21 UTC NOAA

TAF DNKN 180450Z 1806/1912 23010KT CAVOK
TEMPO 1815/1821 TS SCT012 FEW019CB

Example: see airport list